createdAt,value
2019-04-11T00:00:57.576Z,786.00
2019-04-11T00:01:57.027Z,786.00
2019-04-11T00:02:58.699Z,785.00
2019-04-11T00:03:59.864Z,785.00
2019-04-11T00:04:58.942Z,784.00
2019-04-11T00:05:59.930Z,784.00
2019-04-11T00:07:00.387Z,784.00
2019-04-11T00:07:09.445Z,784.00
2019-04-11T00:08:12.103Z,784.00
2019-04-11T00:09:10.845Z,784.00
2019-04-11T00:10:12.421Z,784.00
2019-04-11T00:11:11.949Z,785.00
2019-04-11T00:12:14.517Z,786.00
2019-04-11T00:13:21.114Z,787.00
2019-04-11T00:14:13.820Z,786.00
2019-04-11T00:15:13.938Z,786.00
2019-04-11T00:16:15.614Z,788.00
2019-04-11T00:17:17.283Z,788.00
2019-04-11T00:18:16.625Z,787.00
2019-04-11T00:19:16.447Z,786.00
2019-04-11T00:20:18.149Z,786.00
2019-04-11T00:21:18.961Z,786.00
2019-04-11T00:22:19.561Z,786.00
2019-04-11T00:23:20.254Z,786.00
2019-04-11T00:24:20.906Z,786.00
2019-04-11T00:25:21.445Z,786.00
2019-04-11T00:26:22.187Z,786.00
2019-04-11T00:27:21.245Z,785.00
2019-04-11T00:28:21.871Z,785.00
2019-04-11T00:29:23.549Z,787.00
2019-04-11T00:30:24.205Z,787.00
2019-04-11T00:31:25.137Z,787.00
2019-04-11T00:32:25.391Z,788.00
2019-04-11T00:33:26.441Z,788.00
2019-04-11T00:34:26.877Z,792.00
2019-04-11T00:35:27.919Z,790.00
2019-04-11T00:36:28.414Z,792.00
2019-04-11T00:37:27.610Z,788.00
2019-04-11T00:38:29.964Z,788.00
2019-04-11T00:39:29.852Z,789.00
2019-04-11T00:40:29.615Z,789.00
2019-04-11T00:41:32.269Z,790.00
2019-04-11T00:42:30.994Z,788.00
2019-04-11T00:43:37.670Z,789.00
2019-04-11T00:44:32.815Z,792.00
2019-04-11T00:45:33.921Z,792.00
2019-04-11T00:46:34.197Z,789.00
2019-04-11T00:47:35.241Z,787.00
2019-04-11T00:48:35.589Z,787.00
2019-04-11T00:49:36.661Z,788.00
2019-04-11T00:50:37.263Z,788.00
2019-04-11T00:51:38.133Z,788.00
2019-04-11T00:52:39.136Z,787.00
2019-04-11T00:53:38.756Z,786.00
2019-04-11T00:54:40.716Z,787.00
2019-04-11T00:55:39.903Z,788.00
2019-04-11T00:56:40.639Z,788.00
2019-04-11T00:57:43.237Z,787.00
2019-04-11T00:58:42.169Z,787.00
2019-04-11T00:59:44.680Z,787.00
2019-04-11T01:00:43.208Z,787.00
2019-04-11T01:01:44.992Z,786.00
2019-04-11T01:02:45.428Z,787.00
2019-04-11T01:03:45.412Z,788.00
2019-04-11T01:04:45.855Z,788.00
2019-04-11T01:05:47.846Z,788.00
2019-04-11T01:06:46.951Z,788.00
2019-04-11T01:07:49.206Z,788.00
2019-04-11T01:08:48.301Z,790.00
2019-04-11T01:09:50.606Z,788.00
2019-04-11T01:10:49.733Z,787.00
2019-04-11T01:11:50.125Z,787.00
2019-04-11T01:12:51.660Z,787.00
2019-04-11T01:13:55.302Z,787.00
2019-04-11T01:14:53.158Z,786.00
2019-04-11T01:15:52.890Z,786.00
2019-04-11T01:16:54.826Z,786.00
2019-04-11T01:17:54.518Z,787.00
2019-04-11T01:18:55.939Z,786.00
2019-04-11T01:19:57.374Z,786.00
2019-04-11T01:20:56.293Z,786.00
2019-04-11T01:21:59.456Z,785.00
2019-04-11T01:22:58.462Z,786.00
2019-04-11T01:23:58.210Z,787.00
2019-04-11T01:24:59.920Z,788.00
2019-04-11T01:25:59.421Z,787.00
2019-04-11T01:26:09.464Z,787.00
2019-04-11T01:27:09.953Z,787.00
2019-04-11T01:28:12.208Z,787.00
2019-04-11T01:29:11.329Z,788.00
2019-04-11T01:30:11.766Z,786.00
2019-04-11T01:31:12.001Z,787.00
2019-04-11T01:32:13.959Z,786.00
2019-04-11T01:33:13.415Z,787.00
2019-04-11T01:34:16.159Z,787.00
2019-04-11T01:35:15.235Z,787.00
2019-04-11T01:36:15.139Z,788.00
2019-04-11T01:37:15.681Z,788.00
2019-04-11T01:38:17.249Z,788.00
2019-04-11T01:39:17.708Z,788.00
2019-04-11T01:40:18.418Z,788.00
2019-04-11T01:41:18.885Z,788.00
2019-04-11T01:42:19.575Z,794.00
2019-04-11T01:43:19.855Z,794.00
2019-04-11T01:44:20.546Z,796.00
2019-04-11T01:45:21.160Z,795.00
2019-04-11T01:46:20.673Z,794.00
2019-04-11T01:47:22.641Z,793.00
2019-04-11T01:48:23.709Z,793.00
2019-04-11T01:49:22.611Z,794.00
2019-04-11T01:50:25.156Z,796.00
2019-04-11T01:51:23.977Z,795.00
2019-04-11T01:52:26.522Z,795.00
2019-04-11T01:53:25.016Z,795.00
2019-04-11T01:54:27.943Z,795.00
2019-04-11T01:55:26.284Z,797.00
2019-04-11T01:56:28.060Z,798.00
2019-04-11T01:57:29.725Z,797.00
2019-04-11T01:58:28.897Z,798.00
2019-04-11T01:59:29.135Z,796.00
2019-04-11T02:00:30.171Z,794.00
2019-04-11T02:01:30.609Z,793.00
2019-04-11T02:02:31.045Z,793.00
2019-04-11T02:03:33.066Z,792.00
2019-04-11T02:04:32.444Z,789.00
2019-04-11T02:05:35.003Z,788.00
2019-04-11T02:06:34.124Z,788.00
2019-04-11T02:07:34.372Z,790.00
2019-04-11T02:08:35.531Z,792.00
2019-04-11T02:09:35.923Z,792.00
2019-04-11T02:10:37.052Z,792.00
2019-04-11T02:11:37.334Z,788.00
2019-04-11T02:12:37.480Z,788.00
2019-04-11T02:13:39.697Z,788.00
2019-04-11T02:14:39.657Z,788.00
2019-04-11T02:15:40.729Z,788.00
2019-04-11T02:16:41.122Z,787.00
2019-04-11T02:17:41.184Z,786.00
2019-04-11T02:18:41.649Z,787.00
2019-04-11T02:19:43.340Z,787.00
2019-04-11T02:20:43.863Z,787.00
2019-04-11T02:21:44.380Z,787.00
2019-04-11T02:22:44.839Z,788.00
2019-04-11T02:23:45.566Z,788.00
2019-04-11T02:24:45.009Z,788.00
2019-04-11T02:25:47.070Z,788.00
2019-04-11T02:26:47.237Z,790.00
2019-04-11T02:27:46.535Z,790.00
2019-04-11T02:28:48.793Z,788.00
2019-04-11T02:29:48.815Z,788.00
2019-04-11T02:30:48.681Z,788.00
2019-04-11T02:31:50.609Z,788.00
2019-04-11T02:32:49.882Z,788.00
2019-04-11T02:33:51.122Z,788.00
2019-04-11T02:34:52.256Z,792.00
2019-04-11T02:35:51.874Z,788.00
2019-04-11T02:36:53.575Z,788.00
2019-04-11T02:37:52.638Z,793.00
2019-04-11T02:38:57.490Z,794.00
2019-04-11T02:39:54.147Z,792.00
2019-04-11T02:40:55.138Z,792.00
2019-04-11T02:41:54.908Z,793.00
2019-04-11T02:42:55.070Z,792.00
2019-04-11T02:43:57.483Z,788.00
2019-04-11T02:45:13.765Z,788.00
2019-04-11T02:46:10.019Z,788.00
2019-04-11T02:47:05.557Z,788.00
2019-04-11T02:47:59.400Z,790.00
2019-04-11T02:49:00.887Z,792.00
2019-04-11T02:49:59.217Z,792.00
2019-04-11T02:51:00.987Z,789.00
2019-04-11T02:52:00.857Z,792.00
2019-04-11T02:53:00.904Z,793.00
2019-04-11T02:54:02.244Z,792.00
2019-04-11T02:55:03.408Z,793.00
2019-04-11T02:56:02.776Z,793.00
2019-04-11T02:57:03.169Z,792.00
2019-04-11T02:58:04.000Z,790.00
2019-04-11T02:59:05.147Z,789.00
2019-04-11T02:59:13.469Z,790.00
2019-04-11T03:00:13.408Z,789.00
2019-04-11T03:01:15.592Z,792.00
2019-04-11T03:02:17.517Z,792.00
2019-04-11T03:03:17.302Z,789.00
2019-04-11T03:04:16.693Z,789.00
2019-04-11T03:05:18.267Z,790.00
2019-04-11T03:06:17.524Z,793.00
2019-04-11T03:07:17.604Z,792.00
2019-04-11T03:08:20.157Z,792.00
2019-04-11T03:09:19.741Z,792.00
2019-04-11T03:10:20.900Z,792.00
2019-04-11T03:11:21.390Z,792.00
2019-04-11T03:12:21.673Z,792.00
2019-04-11T03:13:21.154Z,792.00
2019-04-11T03:14:21.346Z,792.00
2019-04-11T03:15:39.228Z,793.00
2019-04-11T03:16:35.467Z,792.00
2019-04-11T03:17:30.604Z,792.00
2019-04-11T03:18:40.917Z,788.00
2019-04-11T03:19:40.342Z,789.00
2019-04-11T03:20:33.816Z,792.00
2019-04-11T03:21:26.883Z,792.00
2019-04-11T03:22:26.937Z,792.00
2019-04-11T03:23:27.844Z,792.00
2019-04-11T03:24:28.699Z,792.00
2019-04-11T03:25:28.355Z,790.00
2019-04-11T03:26:29.171Z,792.00
2019-04-11T03:27:30.390Z,792.00
2019-04-11T03:28:31.365Z,793.00
2019-04-11T03:29:31.466Z,793.00
2019-04-11T03:30:49.415Z,792.00
2019-04-11T03:32:13.975Z,792.00
2019-04-11T03:33:17.035Z,793.00
2019-04-11T03:36:22.179Z,793.00
2019-04-11T03:37:13.867Z,794.00
2019-04-11T03:38:00.106Z,793.00
2019-04-11T03:38:53.552Z,793.00
2019-04-11T03:39:56.424Z,792.00
2019-04-11T03:40:57.911Z,792.00
2019-04-11T03:41:52.024Z,792.00
2019-04-11T03:42:50.415Z,792.00
2019-04-11T03:43:53.051Z,792.00
2019-04-11T03:44:46.330Z,794.00
2019-04-11T03:45:58.672Z,794.00
2019-04-11T03:46:52.682Z,793.00
2019-04-11T03:47:59.135Z,793.00
2019-04-11T03:48:52.259Z,792.00
2019-04-11T03:49:49.206Z,793.00
2019-04-11T03:50:42.634Z,792.00
2019-04-11T03:51:43.674Z,793.00
2019-04-11T03:52:44.746Z,793.00
2019-04-11T03:53:44.977Z,792.00
2019-04-11T03:54:45.548Z,792.00
2019-04-11T03:55:45.631Z,793.00
2019-04-11T03:56:45.957Z,793.00
2019-04-11T03:57:47.095Z,792.00
2019-04-11T03:58:48.276Z,790.00
2019-04-11T03:59:48.063Z,793.00
2019-04-11T04:00:50.768Z,793.00
2019-04-11T04:01:50.706Z,794.00
2019-04-11T04:02:49.723Z,794.00
2019-04-11T04:03:53.414Z,793.00
2019-04-11T04:04:51.846Z,793.00
2019-04-11T04:05:52.834Z,794.00
2019-04-11T04:06:52.921Z,797.00
2019-04-11T04:07:55.240Z,800.00
2019-04-11T04:08:55.513Z,800.00
2019-04-11T04:09:54.709Z,797.00
2019-04-11T04:10:56.347Z,797.00
2019-04-11T04:11:56.880Z,796.00
2019-04-11T04:12:58.197Z,795.00
2019-04-11T04:13:58.969Z,795.00
2019-04-11T04:14:59.190Z,794.00
2019-04-11T04:16:08.119Z,794.00
2019-04-11T04:17:01.661Z,794.00
2019-04-11T04:18:00.089Z,794.00
2019-04-11T04:19:01.679Z,794.00
2019-04-11T04:20:02.212Z,794.00
2019-04-11T04:21:01.878Z,794.00
2019-04-11T04:22:03.025Z,794.00
2019-04-11T04:23:03.150Z,793.00
2019-04-11T04:24:04.055Z,793.00
2019-04-11T04:25:04.368Z,793.00
2019-04-11T04:26:07.325Z,793.00
2019-04-11T04:27:07.063Z,793.00
2019-04-11T04:28:07.086Z,796.00
2019-04-11T04:29:07.378Z,796.00
2019-04-11T04:30:06.268Z,795.00
2019-04-11T04:31:09.712Z,795.00
2019-04-11T04:32:08.389Z,795.00
2019-04-11T04:33:10.061Z,794.00
2019-04-11T04:34:09.408Z,794.00
2019-04-11T04:35:11.530Z,794.00
2019-04-11T04:36:11.028Z,794.00
2019-04-11T04:37:09.396Z,795.00
2019-04-11T04:38:11.367Z,795.00
2019-04-11T04:39:10.745Z,794.00
2019-04-11T04:40:26.939Z,794.00
2019-04-11T04:41:22.429Z,794.00
2019-04-11T04:42:21.871Z,794.00
2019-04-11T04:43:14.484Z,794.00
2019-04-11T04:44:14.431Z,793.00
2019-04-11T04:45:16.116Z,794.00
2019-04-11T04:46:30.003Z,794.00
2019-04-11T04:47:23.745Z,794.00
2019-04-11T04:48:18.838Z,794.00
2019-04-11T04:49:16.401Z,794.00
2019-04-11T04:50:18.273Z,794.00
2019-04-11T04:51:19.882Z,794.00
2019-04-11T04:52:18.844Z,794.00
2019-04-11T04:53:20.248Z,795.00
2019-04-11T04:54:19.908Z,796.00
2019-04-11T04:55:21.485Z,796.00
2019-04-11T04:56:26.050Z,795.00
2019-04-11T04:57:21.267Z,795.00
2019-04-11T04:58:24.345Z,794.00
2019-04-11T04:59:23.686Z,794.00
2019-04-11T05:00:23.421Z,794.00
2019-04-11T05:01:23.812Z,794.00
2019-04-11T05:02:24.627Z,792.00
2019-04-11T05:03:26.157Z,793.00
2019-04-11T05:04:25.046Z,792.00
2019-04-11T05:05:26.697Z,793.00
2019-04-11T05:06:28.078Z,792.00
2019-04-11T05:07:30.410Z,793.00
2019-04-11T05:08:27.769Z,794.00
2019-04-11T05:09:29.877Z,795.00
2019-04-11T05:10:30.450Z,794.00
2019-04-11T05:11:30.561Z,794.00
2019-04-11T05:12:30.296Z,794.00
2019-04-11T05:13:32.208Z,794.00
2019-04-11T05:14:31.733Z,794.00
2019-04-11T05:15:32.488Z,793.00
2019-04-11T05:16:33.311Z,794.00
2019-04-11T05:17:34.510Z,794.00
2019-04-11T05:18:34.237Z,794.00
2019-04-11T05:19:34.463Z,794.00
2019-04-11T05:20:36.415Z,794.00
2019-04-11T05:21:35.862Z,794.00
2019-04-11T05:22:37.361Z,794.00
2019-04-11T05:22:47.159Z,794.00
2019-04-11T05:23:46.039Z,794.00
2019-04-11T05:24:47.527Z,794.00
2019-04-11T05:25:47.314Z,794.00
2019-04-11T05:26:50.221Z,794.00
2019-04-11T05:27:49.593Z,794.00
2019-04-11T05:28:48.922Z,793.00
2019-04-11T05:29:51.586Z,794.00
2019-04-11T05:30:51.231Z,793.00
2019-04-11T05:31:51.156Z,793.00
2019-04-11T05:32:51.397Z,794.00
2019-04-11T05:33:51.871Z,793.00
2019-04-11T05:34:53.089Z,793.00
2019-04-11T05:35:54.187Z,793.00
2019-04-11T05:36:53.994Z,793.00
2019-04-11T05:37:55.861Z,793.00
2019-04-11T05:38:55.362Z,793.00
2019-04-11T05:39:57.010Z,793.00
2019-04-11T05:40:58.500Z,794.00
2019-04-11T05:41:58.672Z,794.00
2019-04-11T05:42:58.078Z,794.00
2019-04-11T05:44:03.435Z,794.00
2019-04-11T05:44:59.261Z,794.00
2019-04-11T05:46:00.277Z,794.00
2019-04-11T05:47:02.596Z,793.00
2019-04-11T05:48:01.331Z,792.00
2019-04-11T05:49:03.839Z,793.00
2019-04-11T05:50:07.628Z,793.00
2019-04-11T05:51:04.492Z,793.00
2019-04-11T05:52:04.139Z,792.00
2019-04-11T05:53:05.907Z,792.00
2019-04-11T05:54:08.831Z,790.00
2019-04-11T05:55:08.290Z,793.00
2019-04-11T05:56:07.128Z,790.00
2019-04-11T05:57:07.119Z,790.00
2019-04-11T05:58:12.812Z,788.00
2019-04-11T05:59:09.376Z,785.00
2019-04-11T06:00:09.684Z,785.00
2019-04-11T06:01:11.757Z,783.00
2019-04-11T06:02:11.039Z,781.00
2019-04-11T06:03:10.703Z,780.00
2019-04-11T06:04:15.373Z,776.00
2019-04-11T06:05:11.462Z,773.00
2019-04-11T06:06:13.049Z,770.00
2019-04-11T06:07:13.722Z,766.00
2019-04-11T06:08:21.155Z,765.00
2019-04-11T06:09:16.123Z,762.00
2019-04-11T06:10:14.824Z,759.00
2019-04-11T06:11:19.299Z,758.00
2019-04-11T06:12:17.161Z,756.00
2019-04-11T06:13:16.685Z,754.00
2019-04-11T06:14:19.411Z,753.00
2019-04-11T06:15:19.942Z,750.00
2019-04-11T06:16:18.793Z,749.00
2019-04-11T06:17:18.798Z,748.00
2019-04-11T06:18:26.908Z,747.00
2019-04-11T06:19:20.673Z,747.00
2019-04-11T06:20:20.341Z,745.00
2019-04-11T06:21:22.278Z,744.00
2019-04-11T06:22:23.416Z,740.00
2019-04-11T06:23:23.371Z,740.00
2019-04-11T06:24:23.833Z,741.00
2019-04-11T06:25:23.604Z,740.00
2019-04-11T06:26:24.816Z,739.00
2019-04-11T06:27:24.663Z,738.00
2019-04-11T06:28:27.192Z,735.00
2019-04-11T06:29:26.803Z,734.00
2019-04-11T06:30:26.451Z,738.00
2019-04-11T06:31:26.502Z,738.00
2019-04-11T06:32:28.239Z,736.00
2019-04-11T06:33:29.019Z,736.00
2019-04-11T06:34:30.430Z,735.00
2019-04-11T06:35:30.241Z,734.00
2019-04-11T06:36:30.139Z,734.00
2019-04-11T06:37:30.447Z,732.00
2019-04-11T06:38:32.457Z,729.00
2019-04-11T06:39:31.534Z,729.00
2019-04-11T06:40:32.661Z,727.00
2019-04-11T06:41:32.833Z,728.00
2019-04-11T06:42:33.041Z,728.00
2019-04-11T06:43:34.708Z,727.00
2019-04-11T06:44:35.558Z,727.00
2019-04-11T06:45:37.681Z,726.00
2019-04-11T06:46:47.588Z,725.00
2019-04-11T06:47:37.292Z,726.00
2019-04-11T06:48:40.025Z,726.00
2019-04-11T06:49:38.526Z,728.00
2019-04-11T06:50:39.634Z,727.00
2019-04-11T06:51:39.863Z,727.00
2019-04-11T06:52:41.220Z,725.00
2019-04-11T06:53:42.066Z,726.00
2019-04-11T06:54:41.463Z,725.00
2019-04-11T06:55:42.671Z,725.00
2019-04-11T06:56:43.323Z,725.00
2019-04-11T06:57:43.093Z,726.00
2019-04-11T06:58:45.728Z,726.00
2019-04-11T06:58:54.150Z,726.00
2019-04-11T06:59:53.872Z,725.00
2019-04-11T07:00:55.778Z,726.00
2019-04-11T07:01:55.060Z,727.00
2019-04-11T07:02:55.394Z,726.00
2019-04-11T07:03:57.483Z,727.00
2019-04-11T07:04:56.540Z,726.00
2019-04-11T07:05:58.043Z,726.00
2019-04-11T07:06:58.536Z,726.00
2019-04-11T07:07:59.933Z,727.00
2019-04-11T07:08:59.131Z,726.00
2019-04-11T07:10:02.150Z,727.00
2019-04-11T07:11:00.845Z,727.00
2019-04-11T07:12:01.388Z,726.00
2019-04-11T07:13:01.886Z,725.00
2019-04-11T07:14:04.124Z,726.00
2019-04-11T07:15:04.401Z,726.00
2019-04-11T07:16:04.708Z,735.00
2019-04-11T07:17:07.425Z,739.00
2019-04-11T07:18:07.457Z,737.00
2019-04-11T07:19:05.347Z,735.00
2019-04-11T07:20:06.856Z,734.00
2019-04-11T07:21:08.506Z,732.00
2019-04-11T07:22:07.012Z,730.00
2019-04-11T07:23:08.617Z,735.00
2019-04-11T07:24:09.111Z,734.00
2019-04-11T07:25:10.351Z,735.00
2019-04-11T07:26:10.149Z,732.00
2019-04-11T07:27:09.569Z,732.00
2019-04-11T07:28:10.051Z,729.00
2019-04-11T07:29:10.463Z,729.00
2019-04-11T07:30:12.115Z,729.00
2019-04-11T07:31:12.875Z,728.00
2019-04-11T07:32:13.436Z,732.00
2019-04-11T07:33:12.814Z,735.00
2019-04-11T07:34:14.794Z,736.00
2019-04-11T07:35:15.626Z,735.00
2019-04-11T07:36:14.958Z,736.00
2019-04-11T07:37:16.857Z,738.00
2019-04-11T07:38:16.319Z,737.00
2019-04-11T07:39:17.116Z,737.00
2019-04-11T07:40:18.557Z,735.00
2019-04-11T07:41:19.532Z,734.00
2019-04-11T07:42:18.705Z,732.00
2019-04-11T07:43:20.334Z,735.00
2019-04-11T07:44:21.848Z,734.00
2019-04-11T07:45:20.958Z,733.00
2019-04-11T07:46:20.699Z,732.00
2019-04-11T07:47:25.255Z,729.00
2019-04-11T07:48:21.672Z,729.00
2019-04-11T07:49:24.466Z,728.00
2019-04-11T07:50:23.159Z,728.00
2019-04-11T07:51:23.466Z,728.00
2019-04-11T07:52:25.050Z,728.00
2019-04-11T07:53:26.254Z,729.00
2019-04-11T07:54:25.905Z,728.00
2019-04-11T07:55:25.832Z,729.00
2019-04-11T07:56:27.316Z,732.00
2019-04-11T07:57:26.880Z,734.00
2019-04-11T07:58:28.625Z,737.00
2019-04-11T07:59:27.905Z,738.00
2019-04-11T08:00:38.534Z,739.00
2019-04-11T08:01:29.453Z,741.00
2019-04-11T08:02:29.667Z,740.00
2019-04-11T08:03:32.071Z,740.00
2019-04-11T08:04:31.950Z,740.00
2019-04-11T08:05:32.349Z,745.00
2019-04-11T08:06:33.080Z,747.00
2019-04-11T08:07:32.779Z,749.00
2019-04-11T08:08:34.438Z,750.00
2019-04-11T08:09:33.868Z,751.00
2019-04-11T08:10:35.434Z,752.00
2019-04-11T08:11:35.941Z,752.00
2019-04-11T08:12:35.600Z,752.00
2019-04-11T08:13:38.619Z,752.00
2019-04-11T08:14:37.075Z,754.00
2019-04-11T08:15:37.763Z,756.00
2019-04-11T08:16:39.174Z,756.00
2019-04-11T08:17:42.296Z,756.00
2019-04-11T08:18:39.356Z,756.00
2019-04-11T08:19:41.152Z,758.00
2019-04-11T08:19:49.766Z,757.00
2019-04-11T08:20:51.244Z,758.00
2019-04-11T08:21:52.566Z,760.00
2019-04-11T08:22:51.762Z,759.00
2019-04-11T08:23:52.323Z,759.00
2019-04-11T08:24:53.718Z,760.00
2019-04-11T08:25:54.195Z,762.00
2019-04-11T08:26:55.446Z,764.00
2019-04-11T08:28:00.225Z,763.00
2019-04-11T08:29:05.555Z,765.00
2019-04-11T08:29:55.698Z,768.00
2019-04-11T08:30:57.356Z,768.00
2019-04-11T08:31:57.629Z,768.00
2019-04-11T08:32:56.655Z,769.00
2019-04-11T08:33:59.276Z,770.00
2019-04-11T08:34:57.909Z,770.00
2019-04-11T08:35:59.770Z,770.00
2019-04-11T08:36:59.025Z,770.00
2019-04-11T08:38:00.962Z,770.00
2019-04-11T08:39:00.573Z,770.00
2019-04-11T08:40:00.221Z,770.00
2019-04-11T08:41:02.966Z,770.00
2019-04-11T08:42:01.469Z,773.00
2019-04-11T08:43:02.859Z,774.00
2019-04-11T08:44:03.681Z,775.00
2019-04-11T08:45:03.999Z,775.00
2019-04-11T08:46:04.606Z,775.00
2019-04-11T08:47:04.489Z,775.00
2019-04-11T08:48:04.959Z,774.00
2019-04-11T08:49:07.620Z,774.00
2019-04-11T08:50:06.127Z,774.00
2019-04-11T08:51:08.011Z,774.00
2019-04-11T08:52:07.609Z,775.00
2019-04-11T08:53:08.720Z,776.00
2019-04-11T08:54:09.130Z,775.00
2019-04-11T08:55:10.288Z,775.00
2019-04-11T08:56:10.583Z,776.00
2019-04-11T08:57:11.692Z,774.00
2019-04-11T08:58:12.067Z,774.00
2019-04-11T08:59:11.697Z,776.00
2019-04-11T09:00:13.739Z,775.00
2019-04-11T09:01:13.719Z,775.00
2019-04-11T09:02:12.841Z,774.00
2019-04-11T09:03:15.598Z,774.00
2019-04-11T09:04:15.270Z,774.00
2019-04-11T09:05:18.006Z,774.00
2019-04-11T09:06:16.622Z,775.00
2019-04-11T09:07:17.014Z,774.00
2019-04-11T09:08:16.947Z,774.00
2019-04-11T09:09:18.836Z,773.00
2019-04-11T09:10:18.022Z,773.00
2019-04-11T09:11:18.698Z,774.00
2019-04-11T09:12:20.704Z,774.00
2019-04-11T09:13:20.178Z,776.00
2019-04-11T09:14:22.197Z,778.00
2019-04-11T09:15:21.237Z,776.00
2019-04-11T09:16:23.680Z,775.00
2019-04-11T09:17:23.392Z,776.00
2019-04-11T09:18:23.140Z,775.00
2019-04-11T09:19:25.128Z,774.00
2019-04-11T09:20:24.300Z,774.00
2019-04-11T09:21:24.791Z,775.00
2019-04-11T09:22:26.586Z,775.00
2019-04-11T09:23:25.944Z,773.00
2019-04-11T09:24:26.304Z,773.00
2019-04-11T09:25:27.429Z,774.00
2019-04-11T09:26:27.693Z,774.00
2019-04-11T09:27:27.315Z,774.00
2019-04-11T09:28:29.207Z,775.00
2019-04-11T09:29:28.350Z,775.00
2019-04-11T09:30:28.588Z,774.00
2019-04-11T09:31:29.629Z,774.00
2019-04-11T09:32:29.502Z,774.00
2019-04-11T09:33:31.217Z,774.00
2019-04-11T09:34:31.869Z,775.00
2019-04-11T09:35:33.377Z,775.00
2019-04-11T09:36:32.384Z,774.00
2019-04-11T09:37:33.819Z,775.00
2019-04-11T09:38:34.770Z,776.00
2019-04-11T09:39:35.085Z,777.00
2019-04-11T09:40:36.212Z,778.00
2019-04-11T09:41:36.520Z,778.00
2019-04-11T09:42:36.597Z,778.00
2019-04-11T09:43:36.877Z,776.00
2019-04-11T09:44:39.293Z,775.00
2019-04-11T09:45:38.181Z,775.00
2019-04-11T09:46:40.756Z,775.00
2019-04-11T09:47:40.353Z,775.00
2019-04-11T09:48:40.120Z,774.00
2019-04-11T09:49:40.694Z,774.00
2019-04-11T09:50:42.718Z,773.00
2019-04-11T09:51:42.343Z,774.00
2019-04-11T09:52:43.181Z,773.00
2019-04-11T09:53:43.398Z,773.00
2019-04-11T09:53:52.904Z,773.00
2019-04-11T09:54:52.647Z,773.00
2019-04-11T09:55:53.707Z,772.00
2019-04-11T09:56:54.058Z,772.00
2019-04-11T09:57:54.673Z,772.00
2019-04-11T09:58:54.664Z,769.00
2019-04-11T09:59:56.397Z,769.00
2019-04-11T10:00:57.218Z,769.00
2019-04-11T10:01:56.731Z,770.00
2019-04-11T10:02:58.698Z,769.00
2019-04-11T10:03:59.263Z,769.00
2019-04-11T10:05:01.399Z,769.00
2019-04-11T10:05:59.656Z,769.00
2019-04-11T10:06:59.711Z,769.00
2019-04-11T10:08:02.187Z,770.00
2019-04-11T10:09:01.822Z,769.00
2019-04-11T10:10:02.571Z,769.00
2019-04-11T10:11:02.269Z,769.00
2019-04-11T10:12:04.519Z,766.00
2019-04-11T10:13:04.638Z,769.00
2019-04-11T10:14:05.155Z,770.00
2019-04-11T10:15:05.461Z,770.00
2019-04-11T10:16:07.532Z,769.00
2019-04-11T10:17:06.758Z,768.00
2019-04-11T10:18:19.523Z,768.00
2019-04-11T10:19:07.729Z,769.00
2019-04-11T10:20:10.609Z,769.00
2019-04-11T10:21:09.038Z,771.00
2019-04-11T10:22:10.943Z,769.00
2019-04-11T10:23:10.547Z,770.00
2019-04-11T10:24:15.799Z,770.00
2019-04-11T10:25:12.796Z,770.00
2019-04-11T10:26:13.816Z,770.00
2019-04-11T10:27:14.223Z,771.00
2019-04-11T10:28:13.846Z,772.00
2019-04-11T10:29:15.830Z,773.00
2019-04-11T10:30:17.377Z,773.00
2019-04-11T10:31:16.249Z,774.00
2019-04-11T10:32:19.150Z,774.00
2019-04-11T10:33:17.747Z,774.00
2019-04-11T10:34:19.694Z,774.00
2019-04-11T10:35:20.094Z,773.00
2019-04-11T10:36:19.154Z,773.00
2019-04-11T10:37:20.011Z,773.00
2019-04-11T10:38:20.385Z,773.00
2019-04-11T10:39:21.489Z,773.00
2019-04-11T10:40:21.601Z,773.00
2019-04-11T10:41:23.004Z,775.00
2019-04-11T10:42:22.217Z,775.00
2019-04-11T10:43:22.761Z,776.00
2019-04-11T10:44:25.615Z,775.00
2019-04-11T10:45:24.906Z,774.00
2019-04-11T10:46:25.176Z,773.00
2019-04-11T10:47:25.158Z,773.00
2019-04-11T10:48:34.599Z,773.00
2019-04-11T10:49:26.340Z,774.00
2019-04-11T10:50:26.836Z,774.00
2019-04-11T10:51:29.548Z,773.00
2019-04-11T10:52:28.790Z,773.00
2019-04-11T10:53:28.416Z,773.00
2019-04-11T10:54:30.976Z,773.00
2019-04-11T10:55:29.866Z,774.00
2019-04-11T10:56:32.563Z,774.00
2019-04-11T10:57:31.961Z,774.00
2019-04-11T10:58:31.533Z,774.00
2019-04-11T10:59:34.362Z,774.00
2019-04-11T11:00:33.482Z,773.00
2019-04-11T11:01:33.824Z,773.00
2019-04-11T11:02:33.726Z,773.00
2019-04-11T11:03:34.153Z,773.00
2019-04-11T11:04:34.831Z,773.00
2019-04-11T11:05:35.202Z,772.00
2019-04-11T11:06:37.929Z,774.00
2019-04-11T11:07:37.067Z,774.00
2019-04-11T11:08:37.630Z,772.00
2019-04-11T11:09:38.825Z,773.00
2019-04-11T11:10:37.589Z,772.00
2019-04-11T11:11:39.395Z,772.00
2019-04-11T11:12:39.975Z,773.00
2019-04-11T11:13:40.841Z,772.00
2019-04-11T11:14:40.069Z,770.00
2019-04-11T11:15:41.895Z,769.00
2019-04-11T11:16:44.466Z,769.00
2019-04-11T11:18:00.917Z,770.00
2019-04-11T11:19:15.609Z,772.00
2019-04-11T11:19:55.245Z,772.00
2019-04-11T11:20:48.907Z,771.00
2019-04-11T11:21:43.672Z,770.00
2019-04-11T11:22:46.148Z,772.00
2019-04-11T11:23:45.001Z,773.00
2019-04-11T11:24:46.306Z,774.00
2019-04-11T11:25:48.516Z,773.00
2019-04-11T11:26:45.982Z,773.00
2019-04-11T11:27:48.025Z,772.00
2019-04-11T11:28:47.139Z,772.00
2019-04-11T11:29:48.627Z,770.00
2019-04-11T11:29:58.188Z,770.00
2019-04-11T11:30:58.449Z,772.00
2019-04-11T11:31:58.523Z,772.00
2019-04-11T11:33:00.160Z,772.00
2019-04-11T11:33:59.605Z,771.00
2019-04-11T11:35:01.116Z,770.00
2019-04-11T11:36:03.244Z,770.00
2019-04-11T11:37:01.237Z,773.00
2019-04-11T11:38:03.815Z,771.00
2019-04-11T11:39:02.496Z,771.00
2019-04-11T11:40:06.719Z,770.00
2019-04-11T11:41:03.937Z,770.00
2019-04-11T11:42:04.274Z,770.00
2019-04-11T11:43:06.518Z,768.00
2019-04-11T11:44:05.660Z,769.00
2019-04-11T11:45:05.661Z,773.00
2019-04-11T11:46:06.955Z,775.00
2019-04-11T11:47:07.887Z,773.00
2019-04-11T11:48:12.437Z,770.00
2019-04-11T11:49:08.037Z,770.00
2019-04-11T11:50:15.629Z,769.00
2019-04-11T11:51:09.294Z,769.00
2019-04-11T11:52:11.392Z,770.00
2019-04-11T11:53:13.248Z,770.00
2019-04-11T11:54:11.627Z,773.00
2019-04-11T11:55:12.402Z,770.00
2019-04-11T11:56:13.717Z,770.00
2019-04-11T11:57:13.357Z,771.00
2019-04-11T11:58:16.988Z,772.00
2019-04-11T11:59:15.274Z,770.00
2019-04-11T12:00:15.237Z,770.00
2019-04-11T12:01:15.683Z,772.00
2019-04-11T12:02:18.285Z,772.00
2019-04-11T12:03:16.995Z,772.00
2019-04-11T12:04:17.276Z,773.00
2019-04-11T12:05:20.369Z,772.00
2019-04-11T12:06:22.389Z,770.00
2019-04-11T12:07:20.947Z,773.00
2019-04-11T12:08:20.538Z,773.00
2019-04-11T12:09:22.403Z,772.00
2019-04-11T12:10:22.561Z,773.00
2019-04-11T12:11:22.385Z,774.00
2019-04-11T12:12:24.030Z,775.00
2019-04-11T12:13:24.831Z,773.00
2019-04-11T12:14:25.596Z,772.00
2019-04-11T12:15:28.363Z,773.00
2019-04-11T12:16:26.196Z,773.00
2019-04-11T12:17:29.317Z,772.00
2019-04-11T12:18:28.675Z,774.00
2019-04-11T12:19:28.997Z,774.00
2019-04-11T12:20:29.170Z,775.00
2019-04-11T12:21:31.002Z,775.00
2019-04-11T12:22:30.681Z,775.00
2019-04-11T12:23:42.817Z,776.00
2019-04-11T12:24:32.357Z,775.00
2019-04-11T12:25:33.358Z,774.00
2019-04-11T12:26:33.794Z,774.00
2019-04-11T12:27:33.152Z,773.00
2019-04-11T12:28:37.024Z,772.00
2019-04-11T12:29:34.652Z,772.00
2019-04-11T12:30:37.379Z,770.00
2019-04-11T12:31:37.137Z,770.00